Time;durP1;ratioP1;P1;durP2;ratioP2;P2;SDS_P1;SDS_P2;PMS_P1;PMS_P2;Temp;Humidity;BMP_temperature;BMP_pressure;BME280_temperature;BME280_humidity;BME280_pressure;Samples;Min_cycle;Max_cycle;Signal;HPM_P1;HPM_P2
2022/02/22 00:00:07;;;;;;;3.00;2.00;;;2.10;99.90;;;;;;5053986;28;20506;-77
2022/02/22 00:02:32;;;;;;;5.23;2.17;;;2.20;99.90;;;;;;5053006;28;20412;-77
2022/02/22 00:04:58;;;;;;;3.10;1.80;;;;;;;;;;5053647;28;20436;-77
2022/02/22 00:07:24;;;;;;;1.63;1.53;;;;;;;;;;5052705;28;20300;-76
2022/02/22 00:09:50;;;;;;;2.80;2.20;;;2.20;99.90;;;;;;5053874;28;20192;-77
2022/02/22 00:12:16;;;;;;;4.30;1.53;;;;;;;;;;5054048;28;20516;-77
2022/02/22 00:14:43;;;;;;;4.50;1.50;;;2.10;99.90;;;;;;5053626;28;20181;-77
2022/02/22 00:17:09;;;;;;;4.77;2.03;;;2.20;99.90;;;;;;5052499;28;20456;-77
2022/02/22 00:19:34;;;;;;;3.30;1.70;;;2.10;99.90;;;;;;5052530;28;20482;-77
2022/02/22 00:22:00;;;;;;;2.00;1.77;;;;;;;;;;5053630;28;20619;-77
2022/02/22 00:24:26;;;;;;;1.77;1.60;;;;;;;;;;5052475;28;20718;-79
2022/02/22 00:26:52;;;;;;;3.77;1.73;;;2.10;99.90;;;;;;5057059;28;20440;-77
2022/02/22 00:29:18;;;;;;;2.67;1.90;;;2.30;99.90;;;;;;5054112;28;20170;-80
2022/02/22 00:31:43;;;;;;;3.67;1.87;;;2.20;99.90;;;;;;5053542;28;20517;-77
2022/02/22 00:34:09;;;;;;;2.77;1.93;;;2.00;99.90;;;;;;5053556;28;20173;-77
2022/02/22 00:36:35;;;;;;;1.47;1.37;;;;;;;;;;5052408;28;20274;-77
2022/02/22 00:39:03;;;;;;;5.07;2.00;;;2.10;99.90;;;;;;5053649;28;20574;-77
2022/02/22 00:41:29;;;;;;;4.77;2.10;;;;;;;;;;5052362;28;20473;-78
2022/02/22 00:43:55;;;;;;;5.57;2.10;;;;;;;;;;5052340;28;20494;-78
2022/02/22 00:46:20;;;;;;;4.47;2.23;;;2.20;99.90;;;;;;5052484;28;20448;-78
2022/02/22 00:48:46;;;;;;;2.23;2.00;;;;;;;;;;5053498;28;20272;-77
2022/02/22 00:51:12;;;;;;;4.10;1.93;;;;;;;;;;5053594;28;20193;-78
2022/02/22 00:53:38;;;;;;;3.57;1.40;;;2.40;99.90;;;;;;5054026;28;20433;-78
2022/02/22 00:56:04;;;;;;;2.60;1.80;;;;;;;;;;5053276;28;20178;-77
2022/02/22 00:58:30;;;;;;;1.87;1.37;;;;;;;;;;5053813;28;20443;-78
2022/02/22 01:00:56;;;;;;;6.37;1.70;;;2.30;99.90;;;;;;5053297;28;20423;-78
2022/02/22 01:03:22;;;;;;;3.10;1.87;;;;;;;;;;5053599;28;20757;-77
2022/02/22 01:05:48;;;;;;;1.43;1.23;;;2.50;99.90;;;;;;5053122;28;20203;-78
2022/02/22 01:08:14;;;;;;;2.57;1.67;;;;;;;;;;5051829;28;20744;-77
2022/02/22 01:10:40;;;;;;;2.70;1.60;;;;;;;;;;5053618;28;20219;-78
2022/02/22 01:13:06;;;;;;;3.37;1.90;;;;;;;;;;5053420;28;20767;-77
2022/02/22 01:15:31;;;;;;;4.00;1.77;;;2.20;99.90;;;;;;5055510;28;20404;-77
2022/02/22 01:17:57;;;;;;;2.73;2.27;;;2.40;99.90;;;;;;5053342;28;20177;-77
2022/02/22 01:20:23;;;;;;;4.47;1.67;;;2.20;99.90;;;;;;5053261;28;20202;-78
2022/02/22 01:22:52;;;;;;;4.73;2.00;;;;;;;;;;5051913;28;20185;-78
2022/02/22 01:25:19;;;;;;;2.97;1.93;;;2.30;99.90;;;;;;5054042;28;20265;-78
2022/02/22 01:27:45;;;;;;;4.03;2.13;;;;;;;;;;5052986;28;20456;-78
2022/02/22 01:30:11;;;;;;;6.53;1.80;;;;;;;;;;5053676;28;20790;-77
2022/02/22 01:32:38;;;;;;;5.90;1.90;;;;;;;;;;5052410;28;20412;-78
2022/02/22 01:35:07;;;;;;;2.27;1.40;;;2.30;99.90;;;;;;5058148;28;20447;-78
2022/02/22 01:37:33;;;;;;;3.80;1.97;;;;;;;;;;5052316;28;20420;-77
2022/02/22 01:39:59;;;;;;;2.90;1.60;;;;;;;;;;5053258;28;20455;-77
2022/02/22 01:42:25;;;;;;;7.23;2.13;;;;;;;;;;5053730;28;20447;-78
2022/02/22 01:44:51;;;;;;;3.93;1.93;;;2.30;99.90;;;;;;5055638;28;20420;-78
2022/02/22 01:47:18;;;;;;;3.30;1.90;;;;;;;;;;5055228;28;20201;-77
2022/02/22 01:49:44;;;;;;;2.93;1.90;;;2.30;99.90;;;;;;5056758;28;20435;-77
2022/02/22 01:52:10;;;;;;;3.30;1.87;;;;;;;;;;5056612;28;20431;-77
2022/02/22 01:54:37;;;;;;;3.23;1.47;;;;;;;;;;5057829;28;20413;-78
2022/02/22 01:57:03;;;;;;;6.47;1.90;;;;;;;;;;5055292;28;20420;-77
2022/02/22 01:59:29;;;;;;;1.93;1.83;;;;;;;;;;5056230;28;20513;-80
2022/02/22 02:01:56;;;;;;;4.87;1.43;;;;;;;;;;5055995;28;20755;-77
2022/02/22 02:04:25;;;;;;;1.87;1.53;;;;;;;;;;5056088;28;20416;-77
2022/02/22 02:06:51;;;;;;;4.13;1.50;;;;;;;;;;5056340;28;20412;-78
2022/02/22 02:09:17;;;;;;;2.73;1.70;;;;;;;;;;5056203;28;20419;-78
2022/02/22 02:11:48;;;;;;;5.23;1.83;;;2.40;99.90;;;;;;5056171;28;20408;-78
2022/02/22 02:14:15;;;;;;;2.90;1.60;;;2.40;99.90;;;;;;5054700;28;20166;-77
2022/02/22 02:16:41;;;;;;;5.10;1.77;;;;;;;;;;5055710;28;20409;-77
2022/02/22 02:19:18;;;;;;;7.70;2.33;;;2.40;99.90;;;;;;5055621;28;20408;-78
2022/02/22 02:21:44;;;;;;;3.23;1.87;;;2.40;99.90;;;;;;5055830;28;20392;-77
2022/02/22 02:24:12;;;;;;;1.17;1.10;;;2.40;99.90;;;;;;5054186;28;20412;-78
2022/02/22 02:26:38;;;;;;;3.67;1.67;;;;;;;;;;5056157;28;20412;-78
2022/02/22 02:29:08;;;;;;;1.70;1.60;;;2.50;99.90;;;;;;5058383;28;20806;-77
2022/02/22 02:31:38;;;;;;;3.20;1.77;;;2.50;99.90;;;;;;5056073;28;20416;-78
2022/02/22 02:34:06;;;;;;;3.63;1.77;;;2.50;99.90;;;;;;5056266;28;20399;-78
2022/02/22 02:36:36;;;;;;;6.57;2.10;;;2.70;99.90;;;;;;5056009;28;20431;-79
2022/02/22 02:39:04;;;;;;;3.70;1.80;;;2.50;99.90;;;;;;5058147;28;20412;-78
2022/02/22 02:41:31;;;;;;;1.93;1.33;;;;;;;;;;5054677;28;20466;-78
2022/02/22 02:44:05;;;;;;;3.67;1.77;;;2.50;99.90;;;;;;5055289;28;20894;-77
2022/02/22 02:46:32;;;;;;;5.63;1.47;;;2.40;99.90;;;;;;5055577;28;20407;-77
2022/02/22 02:48:58;;;;;;;4.47;1.70;;;;;;;;;;5055444;28;20937;-77
2022/02/22 02:51:24;;;;;;;8.53;1.70;;;2.40;99.90;;;;;;5053880;28;20432;-77
2022/02/22 02:53:54;;;;;;;5.50;2.00;;;2.10;99.90;;;;;;5054662;28;20174;-77
2022/02/22 02:56:24;;;;;;;3.23;1.60;;;;;;;;;;5055156;28;20177;-77
2022/02/22 02:58:58;;;;;;;1.73;1.43;;;2.30;99.90;;;;;;5055349;28;20471;-77
2022/02/22 03:01:26;;;;;;;5.07;1.63;;;2.30;99.90;;;;;;5055048;28;20423;-77
2022/02/22 03:03:52;;;;;;;3.37;1.43;;;;;;;;;;5053433;28;20420;-77
2022/02/22 03:06:18;;;;;;;3.60;1.83;;;2.50;99.90;;;;;;5054588;28;20435;-77
2022/02/22 03:08:44;;;;;;;2.40;1.30;;;;;;;;;;5053657;28;20702;-77
2022/02/22 03:11:11;;;;;;;2.13;1.30;;;;;;;;;;5053792;28;20197;-79
2022/02/22 03:13:38;;;;;;;1.93;1.53;;;1.80;99.90;;;;;;5055399;28;20427;-77
2022/02/22 03:16:04;;;;;;;3.70;1.27;;;1.80;99.90;;;;;;5054785;28;20591;-77
2022/02/22 03:18:30;;;;;;;6.00;1.90;;;;;;;;;;5054961;28;20419;-77
2022/02/22 03:20:56;;;;;;;3.40;1.40;;;;;;;;;;5055105;28;20454;-77
2022/02/22 03:23:22;;;;;;;2.17;1.43;;;;;;;;;;5054952;28;20843;-77
2022/02/22 03:25:49;;;;;;;4.87;2.00;;;1.80;99.90;;;;;;5054638;28;20459;-77
2022/02/22 03:28:16;;;;;;;2.23;1.80;;;1.90;99.90;;;;;;5053148;28;20201;-77
2022/02/22 03:30:42;;;;;;;4.57;1.77;;;;;;;;;;5054155;28;20427;-77
2022/02/22 03:33:09;;;;;;;5.67;1.73;;;;;;;;;;5053057;28;20466;-77
2022/02/22 03:35:35;;;;;;;1.93;1.47;;;2.00;99.90;;;;;;5054225;28;20752;-77
2022/02/22 03:38:01;;;;;;;3.10;1.43;;;;;;;;;;5053174;28;20424;-77
2022/02/22 03:40:27;;;;;;;5.60;1.77;;;2.10;99.90;;;;;;5054345;28;20455;-77
2022/02/22 03:42:53;;;;;;;4.93;1.80;;;;;;;;;;5055864;28;20180;-77
2022/02/22 03:45:19;;;;;;;4.87;1.60;;;;;;;;;;5057970;28;20173;-78
2022/02/22 03:47:45;;;;;;;5.73;2.20;;;;;;;;;;5053994;28;20478;-77
2022/02/22 03:50:13;;;;;;;2.63;1.60;;;2.10;99.90;;;;;;5054118;28;20451;-77
2022/02/22 03:52:39;;;;;;;4.93;1.70;;;;;;;;;;5053936;28;20411;-77
2022/02/22 03:55:06;;;;;;;5.73;1.57;;;2.00;99.90;;;;;;5054007;28;20408;-77
2022/02/22 03:57:33;;;;;;;4.37;1.90;;;2.20;99.90;;;;;;5054154;28;20424;-77
2022/02/22 04:00:00;;;;;;;2.80;1.53;;;;;;;;;;5052634;28;20821;-77
2022/02/22 04:02:26;;;;;;;2.93;1.90;;;;;;;;;;5053741;28;20438;-77
2022/02/22 04:04:52;;;;;;;3.60;1.57;;;;;;;;;;5053298;28;20485;-77
2022/02/22 04:07:18;;;;;;;2.60;1.70;;;;;;;;;;5053607;28;20444;-77
2022/02/22 04:09:44;;;;;;;6.50;1.77;;;;;;;;;;5053805;28;20420;-77
2022/02/22 04:12:12;;;;;;;2.10;1.67;;;2.40;99.90;;;;;;5053725;28;20407;-77
2022/02/22 04:14:38;;;;;;;4.00;2.30;;;;;;;;;;5052370;28;20416;-77
2022/02/22 04:17:04;;;;;;;6.33;1.67;;;;;;;;;;5053662;28;20912;-77
2022/02/22 04:19:31;;;;;;;5.90;1.80;;;;;;;;;;5053957;28;20431;-78
2022/02/22 04:21:57;;;;;;;5.67;1.70;;;;;;;;;;5054001;28;20407;-78
2022/02/22 04:24:23;;;;;;;5.17;1.93;;;;;;;;;;5052478;28;20416;-78
2022/02/22 04:26:49;;;;;;;5.57;1.90;;;;;;;;;;5062674;28;20446;-78
2022/02/22 04:29:15;;;;;;;3.83;2.00;;;;;;;;;;5058023;28;20416;-78
2022/02/22 04:31:41;;;;;;;1.70;1.60;;;;;;;;;;5053810;28;20409;-78
2022/02/22 04:34:07;;;;;;;5.17;1.73;;;1.80;99.90;;;;;;5053705;28;20809;-78
2022/02/22 04:36:33;;;;;;;5.43;1.47;;;;;;;;;;5052224;28;20186;-77
2022/02/22 04:39:00;;;;;;;3.40;1.70;;;2.10;99.90;;;;;;5053498;28;20792;-78
2022/02/22 04:41:26;;;;;;;4.07;1.50;;;;;;;;;;5052093;28;20447;-77
2022/02/22 04:43:52;;;;;;;5.80;1.93;;;1.80;99.90;;;;;;5051953;28;20420;-78
2022/02/22 04:46:18;;;;;;;4.27;1.80;;;2.10;99.90;;;;;;5052253;28;20537;-78
2022/02/22 04:48:44;;;;;;;7.17;2.13;;;;;;;;;;5052098;28;20200;-79
2022/02/22 04:51:10;;;;;;;2.83;2.03;;;;;;;;;;5053348;28;20268;-77
2022/02/22 04:53:36;;;;;;;7.40;1.67;;;;;;;;;;5053288;28;20404;-77
2022/02/22 04:56:02;;;;;;;1.43;1.23;;;;;;;;;;5053251;28;20886;-77
2022/02/22 04:58:28;;;;;;;1.10;1.00;;;;;;;;;;5053211;28;20458;-77
2022/02/22 05:00:54;;;;;;;3.87;1.80;;;;;;;;;;5053175;28;20464;-77
2022/02/22 05:03:21;;;;;;;3.23;1.60;;;2.20;99.90;;;;;;5053635;28;20404;-77
2022/02/22 05:05:47;;;;;;;3.53;1.60;;;;;;;;;;5051873;28;20202;-77
2022/02/22 05:08:13;;;;;;;2.50;1.50;;;;;;;;;;5052123;28;20448;-77
2022/02/22 05:10:39;;;;;;;3.23;1.37;;;2.20;99.90;;;;;;5051656;28;20432;-77
2022/02/22 05:13:05;;;;;;;2.03;1.70;;;2.10;99.90;;;;;;5052068;28;20540;-78
2022/02/22 05:15:32;;;;;;;2.13;1.70;;;2.20;99.90;;;;;;5053593;28;20431;-77
2022/02/22 05:17:59;;;;;;;3.27;1.80;;;;;;;;;;5055735;28;20592;-77
2022/02/22 05:20:25;;;;;;;3.33;2.07;;;;;;;;;;5056324;28;20447;-77
2022/02/22 05:22:51;;;;;;;3.53;1.70;;;2.30;99.90;;;;;;5056659;28;20420;-77
2022/02/22 05:25:17;;;;;;;2.23;1.60;;;;;;;;;;5056637;28;20178;-77
2022/02/22 05:27:44;;;;;;;3.90;1.73;;;2.10;99.90;;;;;;5056509;28;20200;-77
2022/02/22 05:30:11;;;;;;;5.37;2.00;;;2.30;99.90;;;;;;5056586;28;20465;-77
2022/02/22 05:32:38;;;;;;;3.80;1.83;;;;;;;;;;5055756;28;20502;-77
2022/02/22 05:35:04;;;;;;;5.20;1.80;;;2.20;99.90;;;;;;5055113;28;20412;-77
2022/02/22 05:37:30;;;;;;;5.70;2.37;;;;;;;;;;5056571;28;20447;-77
2022/02/22 05:39:57;;;;;;;3.37;1.87;;;;;;;;;;5056499;28;20423;-77
2022/02/22 05:42:23;;;;;;;5.83;1.93;;;2.10;99.90;;;;;;5054933;28;20416;-77
2022/02/22 05:44:50;;;;;;;4.67;1.60;;;;;;;;;;5054998;28;20918;-77
2022/02/22 05:47:16;;;;;;;3.23;1.90;;;;;;;;;;5056473;28;20456;-77
2022/02/22 05:49:42;;;;;;;1.40;1.30;;;;;;;;;;5057152;28;20502;-77
2022/02/22 05:52:10;;;;;;;7.00;1.87;;;;;;;;;;5056100;28;20404;-77
2022/02/22 05:54:36;;;;;;;6.60;1.77;;;;;;;;;;5056105;28;20169;-77
2022/02/22 05:57:02;;;;;;;6.57;2.10;;;;;;;;;;5061934;28;20416;-78
2022/02/22 05:59:28;;;;;;;4.00;1.50;;;;;;;;;;5059943;28;20432;-78
2022/02/22 06:01:54;;;;;;;5.33;3.40;;;2.20;99.90;;;;;;5058934;28;20466;-79
2022/02/22 06:04:20;;;;;;;7.27;4.23;;;;;;;;;;5059431;28;20212;-79
2022/02/22 06:06:45;;;;;;;7.80;3.70;;;;;;;;;;5059044;28;20185;-78
2022/02/22 06:09:12;;;;;;;7.53;3.13;;;2.30;99.90;;;;;;5059710;28;20467;-78
2022/02/22 06:11:39;;;;;;;4.23;2.37;;;;;;;;;;5059277;28;20180;-79
2022/02/22 06:14:05;;;;;;;3.10;2.80;;;;;;;;;;5056938;28;20890;-79
2022/02/22 06:16:30;;;;;;;5.53;2.60;;;1.90;99.90;;;;;;5060322;28;20415;-79
2022/02/22 06:18:57;;;;;;;2.87;2.20;;;1.80;99.90;;;;;;5057526;28;20781;-79
2022/02/22 06:21:23;;;;;;;7.40;2.30;;;;;;;;;;5059985;28;20205;-79
2022/02/22 06:23:49;;;;;;;5.43;1.90;;;1.80;99.90;;;;;;5060113;28;20418;-79
2022/02/22 06:26:15;;;;;;;5.43;1.90;;;;;;;;;;5061858;28;20412;-78
2022/02/22 06:28:41;;;;;;;2.13;1.30;;;;;;;;;;5061046;28;20742;-79
2022/02/22 06:31:07;;;;;;;4.73;1.70;;;2.00;99.90;;;;;;5059478;28;20467;-79
2022/02/22 06:33:34;;;;;;;2.40;1.50;;;2.10;99.90;;;;;;5057085;28;20205;-78
2022/02/22 06:36:00;;;;;;;5.90;1.60;;;2.00;99.90;;;;;;5058131;28;20170;-79
2022/02/22 06:38:25;;;;;;;7.03;2.27;;;2.30;99.90;;;;;;5060836;28;20412;-77
2022/02/22 06:40:51;;;;;;;3.47;2.90;;;2.20;99.90;;;;;;5055159;28;20335;-77
2022/02/22 06:43:17;;;;;;;4.07;2.70;;;;;;;;;;5055075;28;20177;-77
2022/02/22 06:45:43;;;;;;;3.90;2.67;;;;;;;;;;5054921;28;20627;-77
2022/02/22 06:48:11;;;;;;;2.10;1.60;;;;;;;;;;5053664;28;20463;-77
2022/02/22 06:50:37;;;;;;;3.97;1.73;;;;;;;;;;5054857;28;20424;-77
2022/02/22 06:53:04;;;;;;;3.60;1.60;;;;;;;;;;5054943;28;20829;-77
2022/02/22 06:55:30;;;;;;;4.23;2.23;;;;;;;;;;5054717;28;20412;-77
2022/02/22 06:58:09;;;;;;;1.40;1.27;;;2.30;99.90;;;;;;5055190;28;20747;-78
2022/02/22 07:00:43;;;;;;;2.63;1.70;;;2.00;99.90;;;;;;5057176;28;20443;-79
2022/02/22 07:03:09;;;;;;;4.87;2.43;;;;;;;;;;5057782;28;20460;-79
2022/02/22 07:05:36;;;;;;;8.40;3.50;;;;;;;;;;5057220;28;20848;-79
2022/02/22 07:08:02;;;;;;;27.93;14.97;;;;;;;;;;5058985;28;20486;-79
2022/02/22 07:10:28;;;;;;;16.47;7.50;;;;;;;;;;5059421;28;20468;-79
2022/02/22 07:12:55;;;;;;;4.77;2.67;;;2.30;99.90;;;;;;5059140;28;20415;-78
2022/02/22 07:15:20;;;;;;;8.67;6.97;;;2.30;99.90;;;;;;5057898;28;20419;-78
2022/02/22 07:17:48;;;;;;;2.97;2.63;;;2.40;99.90;;;;;;5056300;28;20416;-79
2022/02/22 07:20:14;;;;;;;4.53;2.60;;;;;;;;;;5055843;28;20626;-78
2022/02/22 07:22:41;;;;;;;7.90;3.00;;;2.40;99.90;;;;;;5056906;28;20420;-78
2022/02/22 07:25:08;;;;;;;3.53;2.47;;;2.50;99.90;;;;;;5055398;28;20918;-78
2022/02/22 07:27:35;;;;;;;2.93;2.40;;;;;;;;;;5055577;28;20483;-78
2022/02/22 07:30:01;;;;;;;5.57;3.50;;;;;;;;;;5056503;28;20424;-78
2022/02/22 07:32:27;;;;;;;3.10;2.23;;;;;;;;;;5056592;28;20408;-78
2022/02/22 07:34:53;;;;;;;11.47;4.90;;;2.80;99.90;;;;;;5055009;28;20910;-78
2022/02/22 07:37:18;;;;;;;6.30;2.87;;;2.50;99.90;;;;;;5056122;28;20466;-78
2022/02/22 07:39:44;;;;;;;12.27;5.47;;;2.90;99.90;;;;;;5058770;28;20193;-78
2022/02/22 07:42:10;;;;;;;5.20;3.40;;;2.90;99.90;;;;;;5058641;28;20178;-78
2022/02/22 07:44:36;;;;;;;2.93;2.33;;;;;;;;;;5057763;28;20184;-78
2022/02/22 07:47:01;;;;;;;2.83;1.90;;;2.70;99.90;;;;;;5055992;28;20204;-78
2022/02/22 07:49:27;;;;;;;5.27;2.00;;;;;;;;;;5056745;28;20276;-78
2022/02/22 07:51:53;;;;;;;3.87;3.00;;;2.90;99.90;;;;;;5057178;28;20180;-79
2022/02/22 07:54:19;;;;;;;8.17;4.00;;;;;;;;;;5057796;28;20185;-78
2022/02/22 07:56:45;;;;;;;7.27;3.60;;;;;;;;;;5059140;28;20665;-78
2022/02/22 07:59:11;;;;;;;4.00;2.47;;;;;;;;;;5055902;28;20762;-78
2022/02/22 08:01:37;;;;;;;4.23;2.90;;;3.80;99.90;;;;;;5054309;28;20782;-79
2022/02/22 08:04:03;;;;;;;3.17;2.00;;;4.50;99.90;;;;;;5054146;28;20424;-78
2022/02/22 08:06:29;;;;;;;12.00;5.30;;;;;;;;;;5054010;28;20189;-78
2022/02/22 08:08:56;;;;;;;2.20;2.00;;;;;;;;;;5052329;28;20702;-78
2022/02/22 08:11:22;;;;;;;7.97;3.83;;;3.20;99.90;;;;;;5054462;28;20486;-79
2022/02/22 08:13:48;;;;;;;6.03;3.70;;;;;;;;;;5054769;28;20227;-79
2022/02/22 08:16:14;;;;;;;7.50;4.03;;;;;;;;;;5055100;28;20174;-79
2022/02/22 08:18:40;;;;;;;6.17;2.47;;;;;;;;;;5056220;28;20181;-79
2022/02/22 08:21:06;;;;;;;3.93;2.60;;;;;;;;;;5055100;28;20695;-78
2022/02/22 08:23:32;;;;;;;9.33;3.97;;;4.60;99.90;;;;;;5055959;28;20413;-78
2022/02/22 08:25:59;;;;;;;4.27;3.30;;;5.00;99.90;;;;;;5053768;28;20191;-79
2022/02/22 08:28:25;;;;;;;6.53;3.90;;;5.60;99.90;;;;;;5055110;28;20634;-79
2022/02/22 08:30:51;;;;;;;21.00;7.90;;;5.80;99.90;;;;;;5054584;28;20185;-78
2022/02/22 08:33:17;;;;;;;21.97;8.50;;;6.20;99.90;;;;;;5054149;28;20185;-79
2022/02/22 08:35:42;;;;;;;10.07;5.17;;;6.00;99.90;;;;;;5055165;28;20256;-79
2022/02/22 08:38:08;;;;;;;24.03;9.13;;;5.20;99.90;;;;;;5054699;28;20178;-79
2022/02/22 08:40:34;;;;;;;22.90;8.30;;;4.90;99.90;;;;;;5054344;28;20201;-79
2022/02/22 08:42:59;;;;;;;18.00;6.90;;;5.10;99.90;;;;;;5053780;28;20185;-79
2022/02/22 08:45:25;;;;;;;5.70;2.60;;;5.40;99.90;;;;;;5055136;28;20559;-79
2022/02/22 08:47:51;;;;;;;16.20;6.23;;;5.40;99.90;;;;;;5055833;28;20199;-79
2022/02/22 08:50:17;;;;;;;19.20;9.57;;;5.80;99.90;;;;;;5054193;28;20334;-79
2022/02/22 08:52:42;;;;;;;6.20;3.47;;;5.60;99.90;;;;;;5056791;28;20535;-78
2022/02/22 08:55:08;;;;;;;4.37;2.77;;;4.60;99.90;;;;;;5058063;28;20185;-79
2022/02/22 08:57:34;;;;;;;6.13;3.00;;;4.30;99.90;;;;;;5060116;28;20176;-79
2022/02/22 09:00:01;;;;;;;5.07;2.77;;;4.20;99.90;;;;;;5060239;28;20200;-79
2022/02/22 09:02:27;;;;;;;4.33;2.03;;;4.20;99.90;;;;;;5059848;28;20229;-79
2022/02/22 09:04:53;;;;;;;4.77;2.23;;;4.60;99.90;;;;;;5057886;28;20193;-79
2022/02/22 09:07:18;;;;;;;7.37;4.13;;;5.60;99.90;;;;;;5059824;28;20535;-79
2022/02/22 09:09:44;;;;;;;6.10;2.43;;;6.70;99.90;;;;;;5059043;28;20552;-79
2022/02/22 09:12:09;;;;;;;22.13;11.17;;;6.80;99.90;;;;;;5058264;28;20584;-79
2022/02/22 09:14:35;;;;;;;5.30;2.77;;;6.00;99.90;;;;;;5058829;28;20666;-79
2022/02/22 09:17:01;;;;;;;2.97;1.93;;;5.60;99.90;;;;;;5057848;28;20539;-79
2022/02/22 09:19:27;;;;;;;5.47;2.40;;;5.50;99.90;;;;;;5058212;28;20193;-79
2022/02/22 09:21:52;;;;;;;5.17;1.73;;;5.80;99.90;;;;;;5057949;28;20231;-79
2022/02/22 09:24:18;;;;;;;2.63;1.30;;;5.80;99.90;;;;;;5057423;28;20177;-79
2022/02/22 09:26:44;;;;;;;3.00;1.50;;;5.70;99.90;;;;;;5059184;28;20170;-79
2022/02/22 09:29:11;;;;;;;2.83;1.67;;;6.70;99.90;;;;;;5061013;28;20202;-79
2022/02/22 09:31:37;;;;;;;1.87;1.30;;;6.60;99.90;;;;;;5058448;28;20165;-77
2022/02/22 09:34:02;;;;;;;2.30;1.10;;;5.70;99.90;;;;;;5056648;28;20179;-77
2022/02/22 09:36:28;;;;;;;4.73;1.30;;;5.60;99.90;;;;;;5056945;28;20171;-77
2022/02/22 09:38:54;;;;;;;4.83;1.90;;;5.40;99.90;;;;;;5056561;28;20258;-77
2022/02/22 09:41:19;;;;;;;10.17;5.47;;;5.20;99.90;;;;;;5056450;28;20191;-77
2022/02/22 09:43:45;;;;;;;8.10;2.37;;;5.40;99.90;;;;;;5055135;28;20282;-77
2022/02/22 09:46:11;;;;;;;6.17;1.70;;;5.60;99.90;;;;;;5056375;28;20263;-77
2022/02/22 09:48:37;;;;;;;2.00;1.43;;;6.10;99.90;;;;;;5056908;28;20676;-78
2022/02/22 09:51:03;;;;;;;3.27;1.80;;;7.20;99.90;;;;;;5056451;28;20198;-78
2022/02/22 09:53:29;;;;;;;4.13;1.43;;;7.50;99.90;;;;;;5055141;28;20176;-78
2022/02/22 09:55:56;;;;;;;5.03;1.47;;;6.90;99.90;;;;;;5056287;28;20259;-78
2022/02/22 09:58:21;;;;;;;5.20;2.40;;;6.10;99.90;;;;;;5056604;28;20256;-78
2022/02/22 10:00:58;;;;;;;7.30;3.60;;;5.50;99.90;;;;;;5054968;28;20280;-78
2022/02/22 10:03:23;;;;;;;4.37;1.83;;;5.40;99.90;;;;;;5055066;28;20205;-77
2022/02/22 10:05:57;;;;;;;8.23;3.93;;;5.60;99.90;;;;;;5055849;28;20679;-77
2022/02/22 10:08:28;;;;;;;4.13;2.67;;;5.50;99.90;;;;;;5056003;28;20199;-77
2022/02/22 10:11:06;;;;;;;3.70;1.63;;;5.00;99.90;;;;;;5055926;28;20194;-77
2022/02/22 10:13:33;;;;;;;2.77;2.30;;;4.60;99.90;;;;;;5054962;28;20229;-77
2022/02/22 10:15:58;;;;;;;2.67;2.00;;;4.70;99.90;;;;;;5060985;28;20178;-77
2022/02/22 10:18:25;;;;;;;2.83;2.10;;;4.40;99.90;;;;;;5058707;28;20233;-78
2022/02/22 10:20:51;;;;;;;2.03;1.80;;;4.60;99.90;;;;;;5055924;28;20195;-78
2022/02/22 10:23:35;;;;;;;4.40;2.50;;;4.20;99.90;;;;;;5056536;28;20181;-78
2022/02/22 10:26:01;;;;;;;2.80;1.97;;;3.70;99.90;;;;;;5056644;28;20202;-78
2022/02/22 10:28:27;;;;;;;3.83;2.07;;;;;;;;;;5055346;28;20702;-78
2022/02/22 10:30:54;;;;;;;3.77;2.63;;;3.10;99.90;;;;;;5055561;28;20198;-79
2022/02/22 10:33:21;;;;;;;3.03;2.00;;;2.80;99.90;;;;;;5056301;28;20235;-79
2022/02/22 10:36:04;;;;;;;3.17;2.10;;;2.90;99.90;;;;;;5056002;28;20292;-79
2022/02/22 10:38:32;;;;;;;4.30;2.37;;;2.80;99.90;;;;;;5057247;28;20182;-79
2022/02/22 10:41:05;;;;;;;2.27;2.07;;;2.70;99.90;;;;;;5056490;28;20201;-79
2022/02/22 10:43:36;;;;;;;1.73;1.63;;;2.70;99.90;;;;;;5056543;28;20173;-79
2022/02/22 10:46:07;;;;;;;5.40;2.43;;;3.00;99.90;;;;;;5058741;28;20171;-79
2022/02/22 10:48:37;;;;;;;7.37;3.10;;;3.10;99.90;;;;;;5058678;28;20588;-81
2022/02/22 10:51:13;;;;;;;9.63;3.93;;;3.40;99.90;;;;;;5059773;28;20190;-81
2022/02/22 10:53:46;;;;;;;7.37;3.93;;;3.70;99.90;;;;;;5059054;28;20859;-79
2022/02/22 10:56:15;;;;;;;3.30;2.37;;;4.20;99.90;;;;;;5058141;28;20631;-79
2022/02/22 10:58:44;;;;;;;5.43;2.70;;;4.60;99.90;;;;;;5057408;28;20193;-79
2022/02/22 11:01:16;;;;;;;6.17;2.40;;;5.20;99.90;;;;;;5057980;28;20200;-78
2022/02/22 11:03:45;;;;;;;6.70;2.73;;;5.50;99.90;;;;;;5057780;28;20552;-78
2022/02/22 11:06:12;;;;;;;4.50;2.17;;;5.70;99.90;;;;;;5056189;28;20200;-79
2022/02/22 11:08:44;;;;;;;4.87;2.77;;;5.60;99.90;;;;;;5058943;28;20201;-79
2022/02/22 11:11:21;;;;;;;5.83;3.07;;;5.50;99.90;;;;;;5060821;28;20197;-79
2022/02/22 11:14:27;;;;;;;6.50;3.50;;;5.40;99.90;;;;;;5057688;28;20227;-77
2022/02/22 11:16:55;;;;;;;5.13;3.30;;;5.40;99.90;;;;;;5019492;28;20281;-78
2022/02/22 11:19:25;;;;;;;7.77;4.00;;;5.50;99.90;;;;;;5037236;28;20189;-79
2022/02/22 11:21:56;;;;;;;3.27;2.13;;;6.20;99.90;;;;;;5047222;28;20212;-78
2022/02/22 11:24:22;;;;;;;6.47;2.70;;;6.20;99.90;;;;;;5061231;28;20262;-78
2022/02/22 11:26:55;;;;;;;4.60;2.20;;;6.40;99.90;;;;;;5054915;28;20670;-77
2022/02/22 11:29:23;;;;;;;5.03;2.83;;;5.60;99.90;;;;;;5054596;28;20273;-77
2022/02/22 11:32:02;;;;;;;10.57;4.93;;;5.70;99.90;;;;;;5053375;28;20215;-77
2022/02/22 11:34:36;;;;;;;13.50;7.23;;;5.70;99.90;;;;;;5055619;28;20237;-78
2022/02/22 11:37:05;;;;;;;12.27;5.20;;;5.60;99.90;;;;;;5053554;28;20173;-79
2022/02/22 11:39:41;;;;;;;4.03;2.20;;;5.30;99.90;;;;;;5054468;28;20667;-77
2022/02/22 11:42:17;;;;;;;4.67;3.13;;;5.00;99.90;;;;;;5054900;28;20171;-78
2022/02/22 11:44:42;;;;;;;4.20;2.77;;;5.50;99.90;;;;;;5054622;28;20193;-78
2022/02/22 11:47:16;;;;;;;6.37;2.03;;;5.50;99.90;;;;;;5054398;28;20211;-77
2022/02/22 11:49:49;;;;;;;3.83;1.97;;;7.00;99.90;;;;;;5055306;28;20404;-78
2022/02/22 11:52:15;;;;;;;6.27;2.10;;;7.10;99.90;;;;;;5055600;28;20170;-79
2022/02/22 11:54:42;;;;;;;4.07;1.93;;;7.80;99.90;;;;;;5058756;28;20719;-78
2022/02/22 11:57:15;;;;;;;3.77;1.40;;;8.30;99.90;;;;;;5055374;28;20205;-78
2022/02/22 11:59:50;;;;;;;2.33;1.47;;;7.60;99.90;;;;;;5064767;28;20217;-78
2022/02/22 12:02:32;;;;;;;4.30;1.63;;;7.60;99.90;;;;;;5059273;28;20173;-81
2022/02/22 12:05:00;;;;;;;3.27;1.20;;;7.00;99.90;;;;;;5054406;28;20235;-79
2022/02/22 12:07:34;;;;;;;1.93;1.47;;;6.80;99.90;;;;;;5054902;28;20193;-79
2022/02/22 12:10:06;;;;;;;1.97;1.40;;;6.10;99.90;;;;;;5053843;28;20197;-80
2022/02/22 12:12:33;;;;;;;1.20;1.10;;;5.90;99.90;;;;;;5055141;28;20173;-78
2022/02/22 12:14:58;;;;;;;2.87;1.50;;;6.60;99.90;;;;;;5058061;28;20180;-79
2022/02/22 12:17:25;;;;;;;2.00;1.30;;;6.70;99.90;;;;;;5058101;28;20177;-79
2022/02/22 12:19:53;;;;;;;2.40;1.70;;;6.90;99.90;;;;;;5057065;28;20201;-79
2022/02/22 12:22:25;;;;;;;5.57;1.57;;;7.30;99.90;;;;;;5060254;28;20245;-79
2022/02/22 12:24:59;;;;;;;3.67;1.87;;;8.00;99.90;;;;;;5057143;28;20185;-78
2022/02/22 12:27:29;;;;;;;6.07;2.60;;;7.90;99.90;;;;;;5053651;28;20180;-78
2022/02/22 12:29:55;;;;;;;4.13;1.40;;;8.20;99.90;;;;;;5055162;28;20194;-79
2022/02/22 12:32:32;;;;;;;7.13;3.10;;;8.30;99.90;;;;;;5062362;28;20203;-79
2022/02/22 12:35:01;;;;;;;4.87;2.07;;;7.60;99.90;;;;;;5059509;28;20181;-80
2022/02/22 12:37:29;;;;;;;6.07;2.13;;;7.40;99.90;;;;;;5060007;28;20249;-79
2022/02/22 12:39:54;;;;;;;6.87;2.00;;;6.70;99.90;;;;;;5064108;28;20219;-79
2022/02/22 12:42:20;;;;;;;7.37;2.40;;;6.70;99.90;;;;;;5056577;28;20278;-79
2022/02/22 12:44:49;;;;;;;4.13;1.70;;;6.60;99.90;;;;;;5057781;28;20212;-80
2022/02/22 12:47:17;;;;;;;11.77;5.40;;;6.60;99.90;;;;;;5058998;28;20181;-78
2022/02/22 12:49:44;;;;;;;10.13;2.77;;;6.90;99.90;;;;;;5056506;28;20193;-78
2022/02/22 12:52:15;;;;;;;7.40;3.10;;;7.80;99.90;;;;;;5054685;28;20184;-77
2022/02/22 12:54:41;;;;;;;10.23;3.57;;;8.20;99.90;;;;;;5054045;28;20180;-79
2022/02/22 12:57:07;;;;;;;13.30;4.03;;;8.10;99.90;;;;;;5056512;28;20640;-80
2022/02/22 12:59:38;;;;;;;10.20;3.60;;;7.20;99.90;;;;;;5057131;28;20207;-80
2022/02/22 13:02:07;;;;;;;11.93;3.70;;;7.20;99.90;;;;;;5054778;28;20197;-78
2022/02/22 13:04:34;;;;;;;7.07;1.60;;;7.60;99.90;;;;;;5052346;28;20635;-75
2022/02/22 13:07:10;;;;;;;3.67;1.90;;;7.60;99.90;;;;;;5053992;28;20162;-77
2022/02/22 13:09:35;;;;;;;7.73;3.93;;;7.30;99.90;;;;;;5054029;28;20208;-77
2022/02/22 13:12:01;;;;;;;5.77;1.70;;;7.60;99.90;;;;;;5054647;28;20544;-79
2022/02/22 13:14:40;;;;;;;3.77;2.00;;;7.60;99.90;;;;;;5052591;28;20677;-76
2022/02/22 13:17:06;;;;;;;5.63;1.60;;;7.30;99.90;;;;;;5053652;28;20176;-76
2022/02/22 13:19:41;;;;;;;7.20;1.70;;;7.30;99.90;;;;;;5053769;28;20201;-77
2022/02/22 13:22:09;;;;;;;8.23;1.70;;;7.10;99.90;;;;;;5054224;28;20169;-78
2022/02/22 13:24:41;;;;;;;3.27;1.50;;;7.10;99.90;;;;;;5053941;28;20724;-77
2022/02/22 13:27:07;;;;;;;5.30;1.73;;;7.10;99.90;;;;;;5052040;28;20175;-77
2022/02/22 13:29:33;;;;;;;5.73;1.43;;;7.00;99.90;;;;;;5052446;28;20217;-77
2022/02/22 13:32:04;;;;;;;5.77;1.97;;;7.20;99.90;;;;;;5053335;28;20642;-76